If you wish to contribute or participate in the discussions about articles you are invited to join SKYbrary as a registered user

 Actions

Francistown Airport

From SKYbrary Wiki

FBFT /
Revision as of 14:18, 24 October 2014 by Timo.Kouwenhoven (talk | contribs)
Airport
ICAO: FBFT – IATA: FRW
Summary
Name Francistown Airport
Region Africa
Territory Botswana BW.gif
Location Francistown
Serving Francistown
Elevation 1,000.658 m <br />3,283 ft <br />3,283 ft1,000.658 m <br />
Coordinates 21° 9' 34.00" S, 27° 28' 28.00" E
Runways
Designator Length Width Surface ROPS
11/29 2200 m7,217.848 ft <br /> 30 m98.425 ft <br /> ASP /
16/34 1264 m4,146.982 ft <br /> 22 m72.178 ft <br /> GVL /


METAR
Observation FBFT 051700Z 10005KT CAVOK 24/18 Q1014
Station Francistown
Date/Time 05 March 2021 17:00:00
Wind direction 100°
Wind speed 05 kts
Lowest cloud amount clouds and visibility OK
Temperature 24°C
Dew point 18°C
Humidity 69%
QNH 1014 hPa
Weather condition n/a

Francistown Airport

ICAO: FBFT IATA: FRW

Description

Airport serving Francistown, Botswana.

Climatology

Hot, semi-arid/Steppe climate (Köppen climate classification BSh) - hot, sometimes extremely hot summers and mild to warm winters, with low annual precipitation.

Maps

Terrain

Loading map...

Airport Layout

Loading map...


Accidents & Serious Incidents at or in vicinity of FBFT

None on SKYbrary